sensor_id;sensor_type;location;lat;lon;timestamp;P1;P2;P0
61873;PMS5003;49692;55.052;73.310;2022-09-20T00:01:44;9.00;8.50;6.00
61873;PMS5003;49692;55.052;73.310;2022-09-20T00:04:11;13.50;10.75;8.00
61873;PMS5003;49692;55.052;73.310;2022-09-20T00:06:41;17.25;12.75;9.00
61873;PMS5003;49692;55.052;73.310;2022-09-20T00:09:18;13.50;8.50;5.50
61873;PMS5003;49692;55.052;73.310;2022-09-20T00:11:44;12.00;11.00;7.00
61873;PMS5003;49692;55.052;73.310;2022-09-20T00:14:11;15.75;9.00;6.50
61873;PMS5003;49692;55.052;73.310;2022-09-20T00:16:38;15.00;9.25;6.00
61873;PMS5003;49692;55.052;73.310;2022-09-20T00:19:07;15.25;10.50;7.75
61873;PMS5003;49692;55.052;73.310;2022-09-20T00:21:52;11.50;8.25;6.25
61873;PMS5003;49692;55.052;73.310;2022-09-20T00:24:18;12.50;9.50;7.25
61873;PMS5003;49692;55.052;73.310;2022-09-20T00:26:45;12.50;8.25;8.00
61873;PMS5003;49692;55.052;73.310;2022-09-20T00:29:11;9.75;7.50;6.00
61873;PMS5003;49692;55.052;73.310;2022-09-20T00:31:39;13.50;12.00;8.75
61873;PMS5003;49692;55.052;73.310;2022-09-20T00:34:09;13.25;7.00;5.75
61873;PMS5003;49692;55.052;73.310;2022-09-20T00:36:58;11.25;10.75;7.25
61873;PMS5003;49692;55.052;73.310;2022-09-20T00:39:30;13.25;7.25;5.75
61873;PMS5003;49692;55.052;73.310;2022-09-20T00:41:58;12.00;8.75;6.00
61873;PMS5003;49692;55.052;73.310;2022-09-20T00:44:41;14.00;10.25;6.00
61873;PMS5003;49692;55.052;73.310;2022-09-20T00:47:31;12.00;10.50;6.50
61873;PMS5003;49692;55.052;73.310;2022-09-20T00:53:12;12.25;10.75;9.00
61873;PMS5003;49692;55.052;73.310;2022-09-20T00:55:46;14.75;8.50;7.00
61873;PMS5003;49692;55.052;73.310;2022-09-20T00:58:26;9.75;9.00;6.75
61873;PMS5003;49692;55.052;73.310;2022-09-20T01:00:57;15.50;10.25;6.00
61873;PMS5003;49692;55.052;73.310;2022-09-20T01:03:26;16.00;10.75;8.25
61873;PMS5003;49692;55.052;73.310;2022-09-20T01:06:06;14.25;12.00;8.00
61873;PMS5003;49692;55.052;73.310;2022-09-20T01:08:36;18.50;12.00;7.00
61873;PMS5003;49692;55.052;73.310;2022-09-20T01:11:06;10.25;6.75;3.00
61873;PMS5003;49692;55.052;73.310;2022-09-20T01:13:32;10.50;10.00;6.00
61873;PMS5003;49692;55.052;73.310;2022-09-20T01:15:59;15.25;10.25;6.75
61873;PMS5003;49692;55.052;73.310;2022-09-20T01:18:29;14.25;11.75;7.75
61873;PMS5003;49692;55.052;73.310;2022-09-20T01:21:06;16.25;10.75;8.00
61873;PMS5003;49692;55.052;73.310;2022-09-20T01:23:42;14.25;11.75;8.00
61873;PMS5003;49692;55.052;73.310;2022-09-20T01:28:59;11.75;9.75;8.50
61873;PMS5003;49692;55.052;73.310;2022-09-20T01:31:41;15.25;13.50;9.00
61873;PMS5003;49692;55.052;73.310;2022-09-20T01:34:18;18.25;12.25;8.50
61873;PMS5003;49692;55.052;73.310;2022-09-20T01:36:53;14.00;10.25;6.75
61873;PMS5003;49692;55.052;73.310;2022-09-20T01:42:22;10.25;8.25;6.50
61873;PMS5003;49692;55.052;73.310;2022-09-20T01:48:15;13.75;9.75;8.00
61873;PMS5003;49692;55.052;73.310;2022-09-20T01:56:23;20.25;14.25;10.00
61873;PMS5003;49692;55.052;73.310;2022-09-20T02:04:36;11.50;9.00;6.00
61873;PMS5003;49692;55.052;73.310;2022-09-20T02:10:34;13.50;11.75;8.00
61873;PMS5003;49692;55.052;73.310;2022-09-20T02:32:28;26.75;12.75;8.50
61873;PMS5003;49692;55.052;73.310;2022-09-20T03:21:26;18.50;15.50;10.50
61873;PMS5003;49692;55.052;73.310;2022-09-20T03:24:17;23.33;15.00;11.33
61873;PMS5003;49692;55.052;73.310;2022-09-20T03:27:06;24.00;15.00;11.25
61873;PMS5003;49692;55.052;73.310;2022-09-20T03:46:24;23.75;18.50;11.75
61873;PMS5003;49692;55.052;73.310;2022-09-20T03:48:58;20.50;15.50;11.75
61873;PMS5003;49692;55.052;73.310;2022-09-20T04:17:48;22.50;14.50;12.25
61873;PMS5003;49692;55.052;73.310;2022-09-20T04:20:30;16.75;14.25;10.00
61873;PMS5003;49692;55.052;73.310;2022-09-20T04:23:02;26.50;22.25;17.00
61873;PMS5003;49692;55.052;73.310;2022-09-20T04:25:39;33.75;25.25;15.75
61873;PMS5003;49692;55.052;73.310;2022-09-20T04:28:20;28.75;22.00;16.00
61873;PMS5003;49692;55.052;73.310;2022-09-20T04:30:53;33.75;25.50;16.50
61873;PMS5003;49692;55.052;73.310;2022-09-20T04:33:30;31.00;26.00;14.50
61873;PMS5003;49692;55.052;73.310;2022-09-20T04:36:13;31.25;24.00;14.50
61873;PMS5003;49692;55.052;73.310;2022-09-20T04:48:01;58.50;44.75;28.75
61873;PMS5003;49692;55.052;73.310;2022-09-20T04:53:59;44.00;37.00;23.50
61873;PMS5003;49692;55.052;73.310;2022-09-20T04:56:40;58.25;39.75;24.25
61873;PMS5003;49692;55.052;73.310;2022-09-20T05:00:00;47.50;38.75;26.50
61873;PMS5003;49692;55.052;73.310;2022-09-20T05:02:40;52.25;37.50;26.00
61873;PMS5003;49692;55.052;73.310;2022-09-20T05:05:35;57.50;40.50;27.75
61873;PMS5003;49692;55.052;73.310;2022-09-20T05:25:21;44.50;34.25;24.25
61873;PMS5003;49692;55.052;73.310;2022-09-20T05:31:07;36.00;32.75;21.00
61873;PMS5003;49692;55.052;73.310;2022-09-20T05:33:54;43.00;33.75;23.25
61873;PMS5003;49692;55.052;73.310;2022-09-20T05:41:56;31.00;26.00;19.00
61873;PMS5003;49692;55.052;73.310;2022-09-20T05:50:28;43.75;29.75;19.00
61873;PMS5003;49692;55.052;73.310;2022-09-20T06:01:54;32.75;26.75;17.50
61873;PMS5003;49692;55.052;73.310;2022-09-20T06:10:41;29.50;26.00;17.75
61873;PMS5003;49692;55.052;73.310;2022-09-20T06:20:23;24.00;21.50;13.00
61873;PMS5003;49692;55.052;73.310;2022-09-20T06:22:55;24.50;19.75;14.00
61873;PMS5003;49692;55.052;73.310;2022-09-20T06:28:25;22.75;21.00;15.50
61873;PMS5003;49692;55.052;73.310;2022-09-20T06:30:56;28.00;20.75;14.00
61873;PMS5003;49692;55.052;73.310;2022-09-20T06:33:24;25.50;19.75;14.00
61873;PMS5003;49692;55.052;73.310;2022-09-20T06:39:04;16.25;9.75;6.50
61873;PMS5003;49692;55.052;73.310;2022-09-20T06:42:01;28.00;21.25;15.00
61873;PMS5003;49692;55.052;73.310;2022-09-20T06:44:28;28.25;23.50;15.25
61873;PMS5003;49692;55.052;73.310;2022-09-20T06:47:00;22.00;15.00;11.00
61873;PMS5003;49692;55.052;73.310;2022-09-20T06:49:27;28.00;17.50;13.75
61873;PMS5003;49692;55.052;73.310;2022-09-20T06:52:06;36.25;25.75;15.50
61873;PMS5003;49692;55.052;73.310;2022-09-20T06:54:39;24.00;20.75;14.75
61873;PMS5003;49692;55.052;73.310;2022-09-20T06:57:31;32.25;24.75;16.25
61873;PMS5003;49692;55.052;73.310;2022-09-20T07:00:02;24.25;18.00;10.00
61873;PMS5003;49692;55.052;73.310;2022-09-20T07:02:35;25.00;22.50;15.00
61873;PMS5003;49692;55.052;73.310;2022-09-20T07:05:02;26.50;20.75;15.75
61873;PMS5003;49692;55.052;73.310;2022-09-20T07:07:37;26.00;23.25;14.50
61873;PMS5003;49692;55.052;73.310;2022-09-20T07:10:04;15.50;12.50;12.00
61873;PMS5003;49692;55.052;73.310;2022-09-20T07:12:31;28.50;24.50;16.50
61873;PMS5003;49692;55.052;73.310;2022-09-20T07:15:00;26.50;20.75;16.00
61873;PMS5003;49692;55.052;73.310;2022-09-20T07:17:26;29.75;23.50;15.25
61873;PMS5003;49692;55.052;73.310;2022-09-20T07:19:53;24.75;20.50;14.00
61873;PMS5003;49692;55.052;73.310;2022-09-20T07:22:27;28.00;22.50;15.75
61873;PMS5003;49692;55.052;73.310;2022-09-20T07:24:53;25.75;20.50;15.75
61873;PMS5003;49692;55.052;73.310;2022-09-20T07:27:27;19.75;13.75;11.00
61873;PMS5003;49692;55.052;73.310;2022-09-20T07:29:54;26.00;19.50;13.00
61873;PMS5003;49692;55.052;73.310;2022-09-20T07:32:29;27.25;21.00;14.00
61873;PMS5003;49692;55.052;73.310;2022-09-20T07:34:57;26.25;22.25;16.25
61873;PMS5003;49692;55.052;73.310;2022-09-20T07:37:27;25.50;20.75;13.00
61873;PMS5003;49692;55.052;73.310;2022-09-20T07:39:55;20.50;17.75;12.75
61873;PMS5003;49692;55.052;73.310;2022-09-20T07:42:21;21.50;13.25;11.00
61873;PMS5003;49692;55.052;73.310;2022-09-20T07:44:48;24.50;19.75;14.00
61873;PMS5003;49692;55.052;73.310;2022-09-20T07:47:16;29.50;23.25;16.50
61873;PMS5003;49692;55.052;73.310;2022-09-20T07:49:43;22.75;18.50;13.75
61873;PMS5003;49692;55.052;73.310;2022-09-20T07:52:10;24.75;23.25;14.25
61873;PMS5003;49692;55.052;73.310;2022-09-20T07:54:37;19.00;17.50;13.00
61873;PMS5003;49692;55.052;73.310;2022-09-20T07:57:04;20.00;14.75;10.50
61873;PMS5003;49692;55.052;73.310;2022-09-20T07:59:31;24.50;17.75;10.00
61873;PMS5003;49692;55.052;73.310;2022-09-20T08:01:58;25.25;19.50;14.00
61873;PMS5003;49692;55.052;73.310;2022-09-20T08:04:26;27.50;17.50;13.25
61873;PMS5003;49692;55.052;73.310;2022-09-20T08:06:54;17.25;11.00;10.25
61873;PMS5003;49692;55.052;73.310;2022-09-20T08:09:23;20.75;15.00;5.75
61873;PMS5003;49692;55.052;73.310;2022-09-20T08:11:54;30.00;22.25;13.75
61873;PMS5003;49692;55.052;73.310;2022-09-20T08:14:21;21.75;17.75;12.50
61873;PMS5003;49692;55.052;73.310;2022-09-20T08:16:50;26.00;19.75;13.50
61873;PMS5003;49692;55.052;73.310;2022-09-20T08:19:20;21.00;20.75;14.00
61873;PMS5003;49692;55.052;73.310;2022-09-20T08:21:49;25.75;19.25;15.75
61873;PMS5003;49692;55.052;73.310;2022-09-20T08:24:17;21.00;17.75;13.00
61873;PMS5003;49692;55.052;73.310;2022-09-20T08:26:44;17.75;13.00;10.25
61873;PMS5003;49692;55.052;73.310;2022-09-20T08:29:18;24.60;15.20;11.00
61873;PMS5003;49692;55.052;73.310;2022-09-20T08:31:48;23.25;17.50;10.25
61873;PMS5003;49692;55.052;73.310;2022-09-20T08:34:27;14.75;14.00;8.50
61873;PMS5003;49692;55.052;73.310;2022-09-20T08:36:55;19.00;14.75;10.00
61873;PMS5003;49692;55.052;73.310;2022-09-20T08:39:21;14.00;13.25;9.00
61873;PMS5003;49692;55.052;73.310;2022-09-20T08:46:54;8.40;8.20;6.40
61873;PMS5003;49692;55.052;73.310;2022-09-20T08:49:39;15.20;10.60;9.80
61873;PMS5003;49692;55.052;73.310;2022-09-20T08:52:07;29.25;20.25;11.75
61873;PMS5003;49692;55.052;73.310;2022-09-20T08:54:45;18.00;13.40;6.60
61873;PMS5003;49692;55.052;73.310;2022-09-20T08:57:15;18.00;12.80;10.00
61873;PMS5003;49692;55.052;73.310;2022-09-20T08:59:45;18.00;14.40;10.00
61873;PMS5003;49692;55.052;73.310;2022-09-20T09:02:22;18.75;14.00;10.25
61873;PMS5003;49692;55.052;73.310;2022-09-20T09:04:52;20.50;14.25;10.00
61873;PMS5003;49692;55.052;73.310;2022-09-20T09:07:19;17.20;12.20;9.00
61873;PMS5003;49692;55.052;73.310;2022-09-20T09:09:49;11.40;11.40;9.00
61873;PMS5003;49692;55.052;73.310;2022-09-20T09:12:21;18.00;14.40;9.00
61873;PMS5003;49692;55.052;73.310;2022-09-20T09:14:57;21.75;15.25;10.50
61873;PMS5003;49692;55.052;73.310;2022-09-20T09:17:29;15.00;11.50;7.00
61873;PMS5003;49692;55.052;73.310;2022-09-20T09:20:03;24.75;16.00;9.50
61873;PMS5003;49692;55.052;73.310;2022-09-20T09:22:43;2.00;2.00;2.00
61873;PMS5003;49692;55.052;73.310;2022-09-20T09:27:52;15.60;10.80;6.60
61873;PMS5003;49692;55.052;73.310;2022-09-20T09:33:14;10.60;10.60;7.00
61873;PMS5003;49692;55.052;73.310;2022-09-20T09:38:28;14.00;8.20;2.60
61873;PMS5003;49692;55.052;73.310;2022-09-20T09:40:57;10.80;7.00;3.00
61873;PMS5003;49692;55.052;73.310;2022-09-20T09:43:34;9.80;5.00;2.40
61873;PMS5003;49692;55.052;73.310;2022-09-20T09:46:19;11.00;9.40;5.40
61873;PMS5003;49692;55.052;73.310;2022-09-20T09:49:08;5.60;5.20;3.00
61873;PMS5003;49692;55.052;73.310;2022-09-20T09:52:04;7.40;4.80;2.40
61873;PMS5003;49692;55.052;73.310;2022-09-20T09:54:46;9.40;9.40;6.40
61873;PMS5003;49692;55.052;73.310;2022-09-20T09:57:43;14.20;9.80;7.40
61873;PMS5003;49692;55.052;73.310;2022-09-20T10:00:36;18.40;11.80;6.40
61873;PMS5003;49692;55.052;73.310;2022-09-20T10:08:56;21.00;15.60;9.80
61873;PMS5003;49692;55.052;73.310;2022-09-20T10:11:37;18.20;11.60;8.20
61873;PMS5003;49692;55.052;73.310;2022-09-20T10:19:42;10.20;10.20;7.00
61873;PMS5003;49692;55.052;73.310;2022-09-20T10:27:56;22.75;20.00;13.75
61873;PMS5003;49692;55.052;73.310;2022-09-20T10:36:35;13.00;9.80;6.60
61873;PMS5003;49692;55.052;73.310;2022-09-20T10:39:24;9.80;9.60;6.00
61873;PMS5003;49692;55.052;73.310;2022-09-20T10:45:17;15.40;13.60;9.40
61873;PMS5003;49692;55.052;73.310;2022-09-20T10:48:02;15.40;9.60;6.20
61873;PMS5003;49692;55.052;73.310;2022-09-20T10:56:16;14.00;13.40;9.40
61873;PMS5003;49692;55.052;73.310;2022-09-20T10:59:07;20.25;15.50;10.25
61873;PMS5003;49692;55.052;73.310;2022-09-20T11:04:55;25.50;17.00;10.75
61873;PMS5003;49692;55.052;73.310;2022-09-20T11:10:27;14.60;10.00;7.00
61873;PMS5003;49692;55.052;73.310;2022-09-20T11:13:23;1.40;0.80;0.00
61873;PMS5003;49692;55.052;73.310;2022-09-20T11:18:59;15.60;12.00;9.40
61873;PMS5003;49692;55.052;73.310;2022-09-20T11:21:37;14.80;11.40;7.00
61873;PMS5003;49692;55.052;73.310;2022-09-20T11:24:35;13.80;8.20;4.60
61873;PMS5003;49692;55.052;73.310;2022-09-20T11:30:18;12.20;11.40;7.80
61873;PMS5003;49692;55.052;73.310;2022-09-20T11:32:52;8.00;7.40;7.00
61873;PMS5003;49692;55.052;73.310;2022-09-20T11:40:47;16.00;14.00;8.80
61873;PMS5003;49692;55.052;73.310;2022-09-20T11:43:30;11.00;11.00;7.60
61873;PMS5003;49692;55.052;73.310;2022-09-20T11:46:02;18.40;10.80;6.80
61873;PMS5003;49692;55.052;73.310;2022-09-20T11:48:39;11.80;11.00;6.80
61873;PMS5003;49692;55.052;73.310;2022-09-20T11:56:31;16.80;10.40;6.80
61873;PMS5003;49692;55.052;73.310;2022-09-20T11:59:06;15.80;13.00;7.40
61873;PMS5003;49692;55.052;73.310;2022-09-20T12:02:03;17.20;13.40;10.40
61873;PMS5003;49692;55.052;73.310;2022-09-20T12:04:42;17.60;15.60;11.20
61873;PMS5003;49692;55.052;73.310;2022-09-20T12:07:25;14.60;10.40;6.80
61873;PMS5003;49692;55.052;73.310;2022-09-20T12:10:01;21.80;18.40;12.40
61873;PMS5003;49692;55.052;73.310;2022-09-20T12:12:53;30.40;20.80;15.80
61873;PMS5003;49692;55.052;73.310;2022-09-20T12:15:27;21.60;17.00;12.20
61873;PMS5003;49692;55.052;73.310;2022-09-20T12:26:05;20.80;15.80;9.20
61873;PMS5003;49692;55.052;73.310;2022-09-20T12:34:33;27.40;17.00;12.00
61873;PMS5003;49692;55.052;73.310;2022-09-20T12:36:44;22.80;19.80;14.20
61873;PMS5003;49692;55.052;73.310;2022-09-20T12:39:38;21.40;18.20;12.40
61873;PMS5003;49692;55.052;73.310;2022-09-20T12:49:57;23.25;20.50;15.00
61873;PMS5003;49692;55.052;73.310;2022-09-20T12:52:51;17.00;16.25;11.00
61873;PMS5003;49692;55.052;73.310;2022-09-20T12:58:27;36.50;30.00;22.00
61873;PMS5003;49692;55.052;73.310;2022-09-20T13:08:55;24.50;20.00;15.00
61873;PMS5003;49692;55.052;73.310;2022-09-20T13:14:09;26.75;22.50;17.25
61873;PMS5003;49692;55.052;73.310;2022-09-20T13:19:23;30.50;24.25;16.50
61873;PMS5003;49692;55.052;73.310;2022-09-20T13:22:07;25.75;22.75;16.25
61873;PMS5003;49692;55.052;73.310;2022-09-20T13:24:45;28.00;19.75;14.00
61873;PMS5003;49692;55.052;73.310;2022-09-20T13:27:18;33.75;25.00;17.00
61873;PMS5003;49692;55.052;73.310;2022-09-20T13:29:49;26.75;24.50;17.00
61873;PMS5003;49692;55.052;73.310;2022-09-20T13:37:49;28.75;23.50;16.00
61873;PMS5003;49692;55.052;73.310;2022-09-20T13:40:17;25.00;21.75;15.25
61873;PMS5003;49692;55.052;73.310;2022-09-20T13:42:45;17.75;8.00;8.00
61873;PMS5003;49692;55.052;73.310;2022-09-20T13:45:16;21.75;18.00;13.50
61873;PMS5003;49692;55.052;73.310;2022-09-20T13:47:52;32.25;28.75;18.25
61873;PMS5003;49692;55.052;73.310;2022-09-20T13:50:21;32.00;24.50;16.00
61873;PMS5003;49692;55.052;73.310;2022-09-20T13:53:00;27.75;26.25;17.00
61873;PMS5003;49692;55.052;73.310;2022-09-20T13:55:35;32.50;27.75;15.00
61873;PMS5003;49692;55.052;73.310;2022-09-20T13:58:19;35.50;28.25;19.50
61873;PMS5003;49692;55.052;73.310;2022-09-20T14:01:04;35.00;27.25;18.50
61873;PMS5003;49692;55.052;73.310;2022-09-20T14:03:44;34.75;31.75;21.00
61873;PMS5003;49692;55.052;73.310;2022-09-20T14:06:12;41.00;30.00;20.00
61873;PMS5003;49692;55.052;73.310;2022-09-20T14:08:42;24.00;21.25;16.00
61873;PMS5003;49692;55.052;73.310;2022-09-20T14:13:42;45.00;32.50;20.75
61873;PMS5003;49692;55.052;73.310;2022-09-20T14:16:17;33.75;24.50;21.25
61873;PMS5003;49692;55.052;73.310;2022-09-20T14:18:47;40.75;28.25;19.75
61873;PMS5003;49692;55.052;73.310;2022-09-20T14:21:21;37.75;31.00;21.50
61873;PMS5003;49692;55.052;73.310;2022-09-20T14:24:00;37.75;28.75;20.50
61873;PMS5003;49692;55.052;73.310;2022-09-20T14:26:37;37.00;32.25;22.75
61873;PMS5003;49692;55.052;73.310;2022-09-20T14:32:17;36.25;33.00;21.50
61873;PMS5003;49692;55.052;73.310;2022-09-20T14:42:57;45.75;30.00;19.00
61873;PMS5003;49692;55.052;73.310;2022-09-20T14:45:28;39.25;31.75;25.00
61873;PMS5003;49692;55.052;73.310;2022-09-20T14:50:42;29.25;14.00;5.00
61873;PMS5003;49692;55.052;73.310;2022-09-20T14:56:06;47.75;39.50;25.50
61873;PMS5003;49692;55.052;73.310;2022-09-20T15:01:53;49.50;40.50;24.75
61873;PMS5003;49692;55.052;73.310;2022-09-20T15:04:40;49.00;37.50;24.75
61873;PMS5003;49692;55.052;73.310;2022-09-20T15:07:16;48.75;39.75;27.50
61873;PMS5003;49692;55.052;73.310;2022-09-20T15:09:46;48.25;40.00;26.25
61873;PMS5003;49692;55.052;73.310;2022-09-20T15:12:15;52.00;41.00;27.25
61873;PMS5003;49692;55.052;73.310;2022-09-20T15:14:52;51.75;41.00;27.00
61873;PMS5003;49692;55.052;73.310;2022-09-20T15:17:24;35.50;28.00;18.00
61873;PMS5003;49692;55.052;73.310;2022-09-20T15:19:53;46.75;36.50;23.75
61873;PMS5003;49692;55.052;73.310;2022-09-20T15:22:20;39.00;34.00;24.25
61873;PMS5003;49692;55.052;73.310;2022-09-20T15:24:51;35.25;32.75;22.75
61873;PMS5003;49692;55.052;73.310;2022-09-20T15:27:18;35.50;30.50;23.50
61873;PMS5003;49692;55.052;73.310;2022-09-20T15:29:46;27.25;27.25;23.25
61873;PMS5003;49692;55.052;73.310;2022-09-20T15:32:13;33.00;27.75;20.00
61873;PMS5003;49692;55.052;73.310;2022-09-20T15:34:39;25.00;20.25;17.00
61873;PMS5003;49692;55.052;73.310;2022-09-20T15:37:06;27.75;20.25;15.50
61873;PMS5003;49692;55.052;73.310;2022-09-20T15:39:34;41.00;32.75;21.75
61873;PMS5003;49692;55.052;73.310;2022-09-20T15:42:04;34.75;32.00;23.25
61873;PMS5003;49692;55.052;73.310;2022-09-20T15:44:38;36.75;34.50;23.50
61873;PMS5003;49692;55.052;73.310;2022-09-20T15:47:10;31.25;28.50;20.75
61873;PMS5003;49692;55.052;73.310;2022-09-20T15:49:42;36.25;31.75;21.25
61873;PMS5003;49692;55.052;73.310;2022-09-20T15:52:13;33.50;28.50;21.75
61873;PMS5003;49692;55.052;73.310;2022-09-20T15:54:53;29.25;27.00;20.00
61873;PMS5003;49692;55.052;73.310;2022-09-20T15:57:24;30.00;23.00;17.25
61873;PMS5003;49692;55.052;73.310;2022-09-20T15:59:57;38.75;29.75;16.25
61873;PMS5003;49692;55.052;73.310;2022-09-20T16:02:29;36.00;30.25;22.75
61873;PMS5003;49692;55.052;73.310;2022-09-20T16:04:57;39.50;30.25;20.75
61873;PMS5003;49692;55.052;73.310;2022-09-20T16:07:38;31.25;26.00;17.75
61873;PMS5003;49692;55.052;73.310;2022-09-20T16:10:08;39.75;32.75;23.25
61873;PMS5003;49692;55.052;73.310;2022-09-20T16:12:37;38.50;35.00;24.00
61873;PMS5003;49692;55.052;73.310;2022-09-20T16:15:15;44.00;37.50;26.50
61873;PMS5003;49692;55.052;73.310;2022-09-20T16:17:46;41.75;30.00;20.00
61873;PMS5003;49692;55.052;73.310;2022-09-20T16:20:36;41.00;35.00;24.25
61873;PMS5003;49692;55.052;73.310;2022-09-20T16:23:12;32.75;28.50;20.50
61873;PMS5003;49692;55.052;73.310;2022-09-20T16:25:46;36.25;31.75;21.00
61873;PMS5003;49692;55.052;73.310;2022-09-20T16:28:23;40.25;32.75;22.25
61873;PMS5003;49692;55.052;73.310;2022-09-20T16:30:59;40.25;33.75;23.50
61873;PMS5003;49692;55.052;73.310;2022-09-20T16:33:35;33.00;26.25;18.00
61873;PMS5003;49692;55.052;73.310;2022-09-20T16:36:02;34.00;27.00;18.25
61873;PMS5003;49692;55.052;73.310;2022-09-20T16:38:29;36.25;27.25;20.75
61873;PMS5003;49692;55.052;73.310;2022-09-20T16:41:02;34.25;31.50;21.00
61873;PMS5003;49692;55.052;73.310;2022-09-20T16:43:52;36.75;32.25;23.50
61873;PMS5003;49692;55.052;73.310;2022-09-20T16:46:54;46.75;36.50;25.00
61873;PMS5003;49692;55.052;73.310;2022-09-20T16:49:23;51.00;37.50;25.50
61873;PMS5003;49692;55.052;73.310;2022-09-20T16:55:00;42.25;33.00;24.50
61873;PMS5003;49692;55.052;73.310;2022-09-20T16:57:30;37.25;37.00;25.50
61873;PMS5003;49692;55.052;73.310;2022-09-20T17:00:00;43.75;34.50;25.75
61873;PMS5003;49692;55.052;73.310;2022-09-20T17:02:31;41.00;36.00;24.25
61873;PMS5003;49692;55.052;73.310;2022-09-20T17:05:21;40.25;36.25;25.50
61873;PMS5003;49692;55.052;73.310;2022-09-20T17:07:59;49.75;36.50;26.00
61873;PMS5003;49692;55.052;73.310;2022-09-20T17:10:28;54.75;39.50;24.75
61873;PMS5003;49692;55.052;73.310;2022-09-20T17:13:08;53.75;40.50;26.50
61873;PMS5003;49692;55.052;73.310;2022-09-20T17:16:00;49.00;42.75;30.50
61873;PMS5003;49692;55.052;73.310;2022-09-20T17:18:32;49.00;42.00;28.25
61873;PMS5003;49692;55.052;73.310;2022-09-20T17:21:15;51.25;42.00;28.00
61873;PMS5003;49692;55.052;73.310;2022-09-20T17:23:49;53.50;41.50;26.00
61873;PMS5003;49692;55.052;73.310;2022-09-20T17:26:21;53.75;42.00;28.50
61873;PMS5003;49692;55.052;73.310;2022-09-20T17:29:18;54.25;42.50;28.50
61873;PMS5003;49692;55.052;73.310;2022-09-20T17:31:52;42.00;32.50;22.50
61873;PMS5003;49692;55.052;73.310;2022-09-20T17:34:24;49.25;42.75;28.50
61873;PMS5003;49692;55.052;73.310;2022-09-20T17:36:53;65.00;48.50;31.00
61873;PMS5003;49692;55.052;73.310;2022-09-20T17:39:28;56.00;42.75;28.50
61873;PMS5003;49692;55.052;73.310;2022-09-20T17:42:09;55.75;43.00;29.50
61873;PMS5003;49692;55.052;73.310;2022-09-20T17:44:40;51.25;41.50;29.25
61873;PMS5003;49692;55.052;73.310;2022-09-20T17:47:20;62.00;47.50;31.00
61873;PMS5003;49692;55.052;73.310;2022-09-20T17:49:52;67.50;48.50;30.25
61873;PMS5003;49692;55.052;73.310;2022-09-20T17:52:25;51.00;36.75;27.00
61873;PMS5003;49692;55.052;73.310;2022-09-20T17:55:07;60.25;46.50;29.00
61873;PMS5003;49692;55.052;73.310;2022-09-20T17:57:44;61.50;47.00;30.75
61873;PMS5003;49692;55.052;73.310;2022-09-20T18:00:23;56.00;42.50;28.50
61873;PMS5003;49692;55.052;73.310;2022-09-20T18:03:11;59.00;46.50;30.75
61873;PMS5003;49692;55.052;73.310;2022-09-20T18:05:42;64.25;46.25;30.50
61873;PMS5003;49692;55.052;73.310;2022-09-20T18:08:19;46.00;41.25;26.50
61873;PMS5003;49692;55.052;73.310;2022-09-20T18:10:53;55.25;41.25;28.50
61873;PMS5003;49692;55.052;73.310;2022-09-20T18:13:30;58.00;46.00;28.25
61873;PMS5003;49692;55.052;73.310;2022-09-20T18:16:12;49.00;37.25;24.25
61873;PMS5003;49692;55.052;73.310;2022-09-20T18:18:50;59.50;45.00;30.00
61873;PMS5003;49692;55.052;73.310;2022-09-20T18:21:28;48.25;42.25;27.75
61873;PMS5003;49692;55.052;73.310;2022-09-20T18:23:55;60.75;43.75;29.00
61873;PMS5003;49692;55.052;73.310;2022-09-20T18:26:32;53.25;42.50;28.50
61873;PMS5003;49692;55.052;73.310;2022-09-20T18:31:41;65.00;47.75;31.50
61873;PMS5003;49692;55.052;73.310;2022-09-20T18:34:16;52.50;43.50;28.00
61873;PMS5003;49692;55.052;73.310;2022-09-20T18:36:54;60.25;45.75;30.75
61873;PMS5003;49692;55.052;73.310;2022-09-20T18:39:22;60.75;47.25;31.00
61873;PMS5003;49692;55.052;73.310;2022-09-20T18:41:57;60.50;48.00;30.00
61873;PMS5003;49692;55.052;73.310;2022-09-20T18:44:46;59.50;48.25;31.50
61873;PMS5003;49692;55.052;73.310;2022-09-20T18:47:17;57.50;44.00;29.00
61873;PMS5003;49692;55.052;73.310;2022-09-20T18:49:50;64.00;46.25;31.50
61873;PMS5003;49692;55.052;73.310;2022-09-20T18:52:16;63.50;48.75;29.75
61873;PMS5003;49692;55.052;73.310;2022-09-20T18:54:53;63.25;47.50;29.75
61873;PMS5003;49692;55.052;73.310;2022-09-20T18:57:21;62.00;46.25;30.25
61873;PMS5003;49692;55.052;73.310;2022-09-20T18:59:51;62.75;47.50;33.75
61873;PMS5003;49692;55.052;73.310;2022-09-20T19:10:42;59.50;43.50;29.50
61873;PMS5003;49692;55.052;73.310;2022-09-20T19:13:18;55.75;44.75;29.75
61873;PMS5003;49692;55.052;73.310;2022-09-20T19:16:07;55.50;46.00;30.00
61873;PMS5003;49692;55.052;73.310;2022-09-20T19:27:09;58.50;46.00;28.75
61873;PMS5003;49692;55.052;73.310;2022-09-20T19:29:37;45.00;42.25;32.00
61873;PMS5003;49692;55.052;73.310;2022-09-20T19:32:14;47.75;39.75;25.75
61873;PMS5003;49692;55.052;73.310;2022-09-20T19:34:49;59.50;45.75;30.25
61873;PMS5003;49692;55.052;73.310;2022-09-20T19:37:23;60.25;46.75;29.75
61873;PMS5003;49692;55.052;73.310;2022-09-20T19:49:11;59.00;43.50;29.25
61873;PMS5003;49692;55.052;73.310;2022-09-20T19:51:40;46.25;40.00;28.50
61873;PMS5003;49692;55.052;73.310;2022-09-20T19:54:10;62.00;44.25;29.50
61873;PMS5003;49692;55.052;73.310;2022-09-20T19:56:55;55.50;43.25;27.25
61873;PMS5003;49692;55.052;73.310;2022-09-20T19:59:34;56.75;44.75;31.50
61873;PMS5003;49692;55.052;73.310;2022-09-20T20:02:02;59.50;47.50;31.00
61873;PMS5003;49692;55.052;73.310;2022-09-20T20:04:29;64.50;47.75;30.50
61873;PMS5003;49692;55.052;73.310;2022-09-20T20:09:36;59.50;45.00;28.75
61873;PMS5003;49692;55.052;73.310;2022-09-20T20:12:11;63.75;49.50;29.75
61873;PMS5003;49692;55.052;73.310;2022-09-20T20:20:23;54.50;41.25;29.00
61873;PMS5003;49692;55.052;73.310;2022-09-20T20:28:28;49.75;41.50;24.75
61873;PMS5003;49692;55.052;73.310;2022-09-20T20:30:56;53.00;39.25;27.75
61873;PMS5003;49692;55.052;73.310;2022-09-20T20:33:25;57.50;44.00;30.75
61873;PMS5003;49692;55.052;73.310;2022-09-20T20:35:58;50.75;40.25;26.50
61873;PMS5003;49692;55.052;73.310;2022-09-20T20:38:26;60.50;42.50;27.75
61873;PMS5003;49692;55.052;73.310;2022-09-20T20:40:58;54.00;41.50;27.25
61873;PMS5003;49692;55.052;73.310;2022-09-20T20:43:30;62.75;44.50;27.75
61873;PMS5003;49692;55.052;73.310;2022-09-20T20:46:01;58.25;41.75;26.75
61873;PMS5003;49692;55.052;73.310;2022-09-20T20:48:39;60.00;44.75;28.00